MYGF METAR and TAF weather

Enter ICAO airport designator
Station Type Date Time Source
MYGF METAR 2022/01/27 23:00 UTC NOAA

MYGF 272300Z 36006KT 9999 FEW016 SCT050 22/21 A3000


Station Type Date Time Source
MYGF Decoded METAR 2022/01/27 23:00 UTC NOAA

Freeport, Grand Bahama, Bahamas, The (MYGF) 26-33N 078-42W 11M
Jan 27, 2022 - 06:00 PM EST / 2022.01.27 2300 UTC
Wind: from the N (360 degrees) at 7 MPH (6 KT):0
Visibility: greater than 7 mile(s):0
Sky conditions: partly cloudy
Temperature: 71 F (22 C)
Dew Point: 69 F (21 C)
Relative Humidity: 94%
Pressure (altimeter): 30 in. Hg (1015 hPa)
ob: MYGF 272300Z 36006KT 9999 FEW016 SCT050 22/21 A3000
cycle: 23

Station Type Date Time Source
MYGF TAF 2022/01/27 18:30 UTC NOAA

MYGF 271630Z 2718/2818 35007KT 9999 FEW018CB BKN080
BECMG 2800/2802 VRB02KT CAVOK

Example: see airport list